createdAt,value
2023-05-08T00:01:54.317Z,77.30
2023-05-08T00:04:22.431Z,77.46
2023-05-08T00:06:51.593Z,77.34
2023-05-08T00:09:22.269Z,77.54
2023-05-08T00:11:50.330Z,77.65
2023-05-08T00:14:18.397Z,77.64
2023-05-08T00:16:46.485Z,77.74
2023-05-08T00:19:14.633Z,77.72
2023-05-08T00:21:42.791Z,78.45
2023-05-08T00:24:10.825Z,78.22
2023-05-08T00:26:42.023Z,78.30
2023-05-08T00:29:10.082Z,78.54
2023-05-08T00:31:38.268Z,78.07
2023-05-08T00:34:06.357Z,78.35
2023-05-08T00:36:34.393Z,78.53
2023-05-08T00:39:02.436Z,79.06
2023-05-08T00:41:30.506Z,79.21
2023-05-08T00:44:00.005Z,78.89
2023-05-08T00:46:28.393Z,78.60
2023-05-08T00:48:56.565Z,78.95
2023-05-08T00:51:25.216Z,79.12
2023-05-08T00:53:53.494Z,79.12
2023-05-08T00:56:23.795Z,78.94
2023-05-08T00:58:52.240Z,79.10
2023-05-08T01:01:22.300Z,79.25
2023-05-08T01:03:51.038Z,79.69
2023-05-08T01:06:19.172Z,79.68
2023-05-08T01:08:47.284Z,79.85
2023-05-08T01:11:22.870Z,79.66
2023-05-08T01:13:56.113Z,79.53
2023-05-08T01:16:42.941Z,80.01
2023-05-08T01:19:30.814Z,79.87
2023-05-08T01:22:08.492Z,79.56
2023-05-08T01:25:01.573Z,80.02
2023-05-08T01:27:59.543Z,79.85
2023-05-08T01:30:54.458Z,80.36
2023-05-08T01:33:31.514Z,79.95
2023-05-08T01:36:07.737Z,80.35
2023-05-08T01:38:48.980Z,80.17
2023-05-08T01:41:19.676Z,80.23
2023-05-08T01:43:54.786Z,80.53
2023-05-08T01:46:26.725Z,80.15
2023-05-08T01:49:01.899Z,80.77
2023-05-08T01:51:40.363Z,80.71
2023-05-08T01:54:12.427Z,80.65
2023-05-08T01:56:44.038Z,81.07
2023-05-08T01:59:15.577Z,80.66
2023-05-08T02:01:46.272Z,81.01
2023-05-08T02:04:17.719Z,81.03
2023-05-08T02:06:46.157Z,80.71
2023-05-08T02:09:14.751Z,80.78
2023-05-08T02:11:45.280Z,81.09
2023-05-08T02:14:21.345Z,80.87
2023-05-08T02:16:51.898Z,80.57
2023-05-08T02:19:24.636Z,80.66
2023-05-08T02:21:54.076Z,80.55
2023-05-08T02:24:23.505Z,80.67
2023-05-08T02:26:55.178Z,80.45
2023-05-08T02:29:24.885Z,80.80
2023-05-08T02:31:56.190Z,80.79
2023-05-08T02:34:26.836Z,80.66
2023-05-08T02:36:55.913Z,80.56
2023-05-08T02:39:27.501Z,80.59
2023-05-08T02:41:55.665Z,80.74
2023-05-08T02:44:25.224Z,80.50
2023-05-08T02:46:58.629Z,81.61
2023-05-08T02:49:32.106Z,81.21
2023-05-08T02:52:06.923Z,81.68
2023-05-08T02:54:39.506Z,81.87
2023-05-08T02:57:15.644Z,81.81
2023-05-08T02:59:47.985Z,81.82
2023-05-08T03:02:20.242Z,81.78
2023-05-08T03:04:54.387Z,82.75
2023-05-08T03:07:26.452Z,82.59
2023-05-08T03:10:03.118Z,82.51
2023-05-08T03:12:33.746Z,83.73
2023-05-08T03:15:07.735Z,82.81
2023-05-08T03:17:39.234Z,83.03
2023-05-08T03:20:13.702Z,83.24
2023-05-08T03:22:44.826Z,82.91
2023-05-08T03:25:15.427Z,83.10
2023-05-08T03:27:46.150Z,82.92
2023-05-08T03:30:15.761Z,83.11
2023-05-08T03:32:47.653Z,83.35
2023-05-08T03:35:18.409Z,83.57
2023-05-08T03:37:46.715Z,83.73
2023-05-08T03:40:15.245Z,83.74
2023-05-08T03:42:44.575Z,84.11
2023-05-08T03:45:15.334Z,84.57
2023-05-08T03:47:44.704Z,83.88
2023-05-08T03:50:12.993Z,84.26
2023-05-08T03:52:43.753Z,83.91
2023-05-08T03:55:11.897Z,83.94
2023-05-08T03:57:47.001Z,83.98
2023-05-08T04:00:18.300Z,84.02
2023-05-08T04:02:53.515Z,83.81
2023-05-08T04:05:26.804Z,83.65
2023-05-08T04:08:02.378Z,83.51
2023-05-08T04:10:33.247Z,84.61
2023-05-08T04:13:08.348Z,83.62
2023-05-08T04:15:45.062Z,83.54
2023-05-08T04:18:18.168Z,83.53
2023-05-08T04:20:49.205Z,83.48
2023-05-08T04:23:23.316Z,83.36
2023-05-08T04:25:54.402Z,83.55
2023-05-08T04:28:23.713Z,83.45
2023-05-08T04:30:52.916Z,83.23
2023-05-08T04:33:21.752Z,83.19
2023-05-08T04:35:51.428Z,82.95
2023-05-08T04:38:21.338Z,83.26
2023-05-08T04:40:49.402Z,83.06
2023-05-08T04:43:17.521Z,83.25
2023-05-08T04:45:45.640Z,83.15
2023-05-08T04:48:14.467Z,82.83
2023-05-08T04:50:42.605Z,82.64
2023-05-08T04:53:10.775Z,82.35
2023-05-08T04:55:40.323Z,81.80
2023-05-08T04:58:08.342Z,81.42
2023-05-08T05:00:36.840Z,81.10
2023-05-08T05:03:05.609Z,80.99
2023-05-08T05:05:33.713Z,80.62
2023-05-08T05:08:01.914Z,80.18
2023-05-08T05:10:30.611Z,79.09
2023-05-08T05:13:00.202Z,78.17
2023-05-08T05:15:28.939Z,77.30
2023-05-08T05:17:57.089Z,76.93
2023-05-08T05:20:25.351Z,76.11
2023-05-08T05:22:53.496Z,75.44
2023-05-08T05:25:21.562Z,74.67
2023-05-08T05:27:49.876Z,74.21
2023-05-08T05:30:19.548Z,73.14
2023-05-08T05:32:47.735Z,72.50
2023-05-08T05:35:16.364Z,71.90
2023-05-08T05:37:44.827Z,71.53
2023-05-08T05:40:14.510Z,71.46
2023-05-08T05:42:42.834Z,70.93
2023-05-08T05:53:59.410Z,68.30
2023-05-08T05:56:28.005Z,68.42
2023-05-08T05:58:56.198Z,68.81
2023-05-08T06:01:24.844Z,68.74
2023-05-08T06:03:53.390Z,68.51
2023-05-08T06:06:22.139Z,68.58
2023-05-08T06:08:50.262Z,68.83
2023-05-08T06:11:19.856Z,68.51
2023-05-08T06:13:50.409Z,67.97
2023-05-08T06:16:20.764Z,68.08
2023-05-08T06:18:48.951Z,67.92
2023-05-08T06:21:17.012Z,67.45
2023-05-08T06:23:45.268Z,66.88
2023-05-08T06:26:13.436Z,65.17
2023-05-08T06:28:42.808Z,63.94
2023-05-08T06:31:10.988Z,62.87
2023-05-08T06:33:39.167Z,63.07
2023-05-08T06:36:07.904Z,62.80
2023-05-08T06:38:36.015Z,61.58
2023-05-08T06:41:04.012Z,61.29
2023-05-08T06:43:32.148Z,60.25
2023-05-08T06:46:01.557Z,59.31
2023-05-08T06:48:29.641Z,58.73
2023-05-08T06:50:57.709Z,59.05
2023-05-08T06:53:25.764Z,58.57
2023-05-08T06:55:54.021Z,58.47
2023-05-08T06:58:22.011Z,58.43
2023-05-08T07:00:50.105Z,57.48
2023-05-08T07:03:19.481Z,57.96
2023-05-08T07:05:47.552Z,57.91
2023-05-08T07:08:15.565Z,58.64
2023-05-08T07:10:43.571Z,58.67
2023-05-08T07:13:11.721Z,58.32
2023-05-08T07:15:40.095Z,58.43
2023-05-08T07:18:08.235Z,57.51
2023-05-08T07:20:37.674Z,56.69
2023-05-08T07:23:05.734Z,56.53
2023-05-08T07:25:33.812Z,57.29
2023-05-08T07:28:01.895Z,56.69
2023-05-08T07:30:29.946Z,56.46
2023-05-08T07:32:58.321Z,56.08
2023-05-08T07:35:26.552Z,55.96
2023-05-08T07:37:56.072Z,56.30
2023-05-08T07:40:24.197Z,56.24
2023-05-08T07:42:52.395Z,56.65
2023-05-08T07:45:20.500Z,57.08
2023-05-08T07:47:52.790Z,56.84
2023-05-08T07:50:21.976Z,57.93
2023-05-08T07:52:50.461Z,58.61
2023-05-08T07:55:20.688Z,59.07
2023-05-08T07:57:48.788Z,59.48
2023-05-08T08:00:17.729Z,60.20
2023-05-08T08:02:46.505Z,60.96
2023-05-08T08:05:14.825Z,61.58
2023-05-08T08:07:43.076Z,62.21
2023-05-08T08:10:11.825Z,62.51
2023-05-08T08:12:41.286Z,62.47
2023-05-08T08:15:13.188Z,63.24
2023-05-08T08:17:41.618Z,63.22
2023-05-08T08:20:10.717Z,64.21
2023-05-08T08:22:39.157Z,63.96
2023-05-08T08:25:07.968Z,64.28
2023-05-08T08:27:35.998Z,64.25
2023-05-08T08:30:16.038Z,64.35
2023-05-08T08:32:45.603Z,64.57
2023-05-08T08:35:14.839Z,64.45
2023-05-08T08:37:43.673Z,64.41
2023-05-08T08:40:12.355Z,64.72
2023-05-08T08:42:40.946Z,65.05
2023-05-08T08:45:11.841Z,64.25
2023-05-08T08:47:41.676Z,64.11
2023-05-08T08:50:13.563Z,64.38
2023-05-08T08:53:02.508Z,64.59
2023-05-08T08:55:32.167Z,63.92
2023-05-08T08:58:08.549Z,64.18
2023-05-08T09:00:38.952Z,64.09
2023-05-08T09:03:07.915Z,63.90
2023-05-08T09:05:36.865Z,63.83
2023-05-08T09:08:07.133Z,63.35
2023-05-08T09:10:36.368Z,63.31
2023-05-08T09:13:04.872Z,63.48
2023-05-08T09:15:33.470Z,63.02
2023-05-08T09:18:03.764Z,62.79
2023-05-08T09:20:31.939Z,62.58
2023-05-08T09:23:02.764Z,62.15
2023-05-08T09:25:45.913Z,62.25
2023-05-08T09:28:18.548Z,61.71
2023-05-08T09:30:54.139Z,61.26
2023-05-08T09:33:25.453Z,60.43
2023-05-08T09:35:54.054Z,60.31
2023-05-08T09:38:37.209Z,59.37
2023-05-08T09:41:10.191Z,59.60
2023-05-08T09:43:38.593Z,60.15
2023-05-08T09:46:23.498Z,59.78
2023-05-08T09:48:55.919Z,60.46
2023-05-08T09:51:24.487Z,60.51
2023-05-08T09:53:53.956Z,60.41
2023-05-08T09:56:33.812Z,59.71
2023-05-08T09:59:03.011Z,60.27
2023-05-08T10:01:33.093Z,60.53
2023-05-08T10:04:03.767Z,60.59
2023-05-08T10:06:32.216Z,60.52
2023-05-08T10:09:13.863Z,60.29
2023-05-08T10:11:43.252Z,60.42
2023-05-08T10:14:11.288Z,60.15
2023-05-08T10:16:44.874Z,59.50
2023-05-08T10:19:16.904Z,59.63
2023-05-08T10:21:48.440Z,59.69
2023-05-08T10:24:18.483Z,59.42
2023-05-08T10:29:34.613Z,58.86
2023-05-08T10:32:04.456Z,59.02
2023-05-08T10:34:35.551Z,58.98
2023-05-08T10:37:03.942Z,58.50
2023-05-08T10:39:34.700Z,59.00
2023-05-08T10:42:02.871Z,58.83
2023-05-08T10:44:31.394Z,58.79
2023-05-08T10:47:07.288Z,58.67
2023-05-08T10:49:45.889Z,58.89
2023-05-08T10:52:20.983Z,58.55
2023-05-08T10:55:17.722Z,57.09
2023-05-08T10:58:08.209Z,56.91
2023-05-08T11:01:15.668Z,55.99
2023-05-08T11:03:50.639Z,56.01
2023-05-08T11:06:44.641Z,54.87
2023-05-08T11:09:22.281Z,54.61
2023-05-08T11:12:07.098Z,53.08
2023-05-08T11:14:36.645Z,53.71
2023-05-08T11:17:08.919Z,52.89
2023-05-08T11:19:38.623Z,52.40
2023-05-08T11:22:26.109Z,50.78
2023-05-08T11:24:57.063Z,51.70
2023-05-08T11:27:39.368Z,49.47
2023-05-08T11:30:23.831Z,49.06
2023-05-08T11:33:02.270Z,49.16
2023-05-08T11:35:44.533Z,47.52
2023-05-08T11:38:32.767Z,46.57
2023-05-08T11:41:05.968Z,47.00
2023-05-08T11:44:14.804Z,45.88
2023-05-08T11:46:49.921Z,47.34
2023-05-08T11:49:23.808Z,47.24
2023-05-08T11:51:55.139Z,43.83
2023-05-08T11:54:25.908Z,45.20
2023-05-08T11:56:55.322Z,45.76
2023-05-08T11:59:23.372Z,45.83
2023-05-08T12:04:22.912Z,44.85
2023-05-08T12:06:51.698Z,44.90
2023-05-08T12:09:20.563Z,45.17
2023-05-08T12:11:58.223Z,43.71
2023-05-08T12:14:26.329Z,45.40
2023-05-08T12:16:54.430Z,45.82
2023-05-08T12:19:22.781Z,45.29
2023-05-08T12:21:51.462Z,46.08
2023-05-08T12:24:23.320Z,45.25
2023-05-08T12:26:55.317Z,45.26
2023-05-08T12:29:23.617Z,45.56
2023-05-08T12:31:52.147Z,46.04
2023-05-08T12:34:20.776Z,45.86
2023-05-08T12:36:48.789Z,45.26
2023-05-08T12:39:18.779Z,46.31
2023-05-08T12:41:50.636Z,45.50
2023-05-08T12:44:25.090Z,44.95
2023-05-08T12:46:54.130Z,46.08
2023-05-08T12:49:28.133Z,45.97
2023-05-08T12:52:02.990Z,45.50
2023-05-08T12:54:38.716Z,46.05
2023-05-08T12:57:13.518Z,45.17
2023-05-08T12:59:43.932Z,45.37
2023-05-08T13:02:17.183Z,45.18
2023-05-08T13:04:46.756Z,45.85
2023-05-08T13:07:15.449Z,46.45
2023-05-08T13:09:57.498Z,46.49
2023-05-08T13:12:25.696Z,47.09
2023-05-08T13:14:55.092Z,46.50
2023-05-08T13:17:23.425Z,46.69
2023-05-08T13:19:51.530Z,46.47
2023-05-08T13:22:23.098Z,46.57
2023-05-08T13:24:51.218Z,46.56
2023-05-08T13:27:19.386Z,46.61
2023-05-08T13:29:47.606Z,46.92
2023-05-08T13:32:17.277Z,46.40
2023-05-08T13:34:50.795Z,47.47
2023-05-08T13:37:19.933Z,46.73
2023-05-08T13:39:51.722Z,46.89
2023-05-08T13:42:21.356Z,47.14
2023-05-08T13:44:49.450Z,46.92
2023-05-08T13:47:19.149Z,46.69
2023-05-08T13:49:47.351Z,46.92
2023-05-08T13:52:15.431Z,46.57
2023-05-08T13:54:43.440Z,46.20
2023-05-08T13:57:12.433Z,46.46
2023-05-08T13:59:40.729Z,46.39
2023-05-08T14:02:08.784Z,46.23
2023-05-08T14:04:38.245Z,46.39
2023-05-08T14:07:06.498Z,46.54
2023-05-08T14:09:35.150Z,46.23
2023-05-08T14:12:03.235Z,46.33
2023-05-08T14:14:32.394Z,46.67
2023-05-08T14:17:01.772Z,46.37
2023-05-08T14:19:29.779Z,46.38
2023-05-08T14:21:59.366Z,46.51
2023-05-08T14:24:27.876Z,46.79
2023-05-08T14:26:56.056Z,47.41
2023-05-08T14:29:24.146Z,47.48
2023-05-08T14:31:52.330Z,47.54
2023-05-08T14:34:20.408Z,47.36
2023-05-08T14:36:48.441Z,47.71
2023-05-08T14:39:17.858Z,47.62
2023-05-08T14:41:59.759Z,47.80
2023-05-08T14:44:34.052Z,48.50
2023-05-08T14:47:02.102Z,48.57
2023-05-08T14:49:37.587Z,48.63
2023-05-08T14:52:06.887Z,48.70
2023-05-08T14:54:37.076Z,50.44
2023-05-08T14:57:05.357Z,51.76
2023-05-08T14:59:33.469Z,53.31
2023-05-08T15:02:02.106Z,54.65
2023-05-08T15:04:30.230Z,55.29
2023-05-08T15:06:58.327Z,56.60
2023-05-08T15:09:26.321Z,56.92
2023-05-08T15:11:55.948Z,57.96
2023-05-08T15:14:24.625Z,57.88
2023-05-08T15:16:52.634Z,58.30
2023-05-08T15:19:20.707Z,58.56
2023-05-08T15:21:48.734Z,58.45
2023-05-08T15:24:16.778Z,58.53
2023-05-08T15:26:44.845Z,58.81
2023-05-08T15:29:14.292Z,59.27
2023-05-08T15:31:42.480Z,59.20
2023-05-08T15:34:10.515Z,60.02
2023-05-08T15:36:38.633Z,60.44
2023-05-08T15:39:06.655Z,60.87
2023-05-08T15:41:36.428Z,61.48
2023-05-08T15:44:04.541Z,62.61
2023-05-08T15:46:34.187Z,62.94
2023-05-08T15:49:03.077Z,63.16
2023-05-08T15:51:31.818Z,63.95
2023-05-08T15:53:59.836Z,64.35
2023-05-08T15:56:27.879Z,65.09
2023-05-08T15:58:55.886Z,65.38
2023-05-08T16:01:24.007Z,66.18
2023-05-08T16:03:53.472Z,66.73
2023-05-08T16:06:21.519Z,67.09
2023-05-08T16:08:49.519Z,67.51
2023-05-08T16:11:17.648Z,67.81
2023-05-08T16:13:46.071Z,68.55
2023-05-08T16:16:14.132Z,70.25
2023-05-08T16:18:42.196Z,69.90
2023-05-08T16:21:13.202Z,70.26
2023-05-08T16:23:41.221Z,69.62
2023-05-08T16:26:09.451Z,69.76
2023-05-08T16:28:37.549Z,69.71
2023-05-08T16:31:07.677Z,69.13
2023-05-08T16:33:35.756Z,68.76
2023-05-08T16:36:03.808Z,68.63
2023-05-08T16:38:33.209Z,68.50
2023-05-08T16:41:04.652Z,68.72
2023-05-08T16:43:32.733Z,68.68
2023-05-08T16:46:00.874Z,68.78
2023-05-08T16:48:30.311Z,68.48
2023-05-08T16:50:58.379Z,68.77
2023-05-08T16:53:27.365Z,68.85
2023-05-08T16:55:56.800Z,69.01
2023-05-08T16:58:27.065Z,68.86
2023-05-08T17:00:55.121Z,69.17
2023-05-08T17:03:23.295Z,69.23
2023-05-08T17:05:51.366Z,69.38
2023-05-08T17:08:19.424Z,69.50
2023-05-08T17:10:47.440Z,69.62
2023-05-08T17:13:16.891Z,69.58
2023-05-08T17:15:44.898Z,69.23
2023-05-08T17:18:13.094Z,69.12
2023-05-08T17:20:42.744Z,69.00
2023-05-08T17:23:11.115Z,69.02
2023-05-08T17:25:39.118Z,68.86
2023-05-08T17:28:07.179Z,68.75
2023-05-08T17:30:36.647Z,68.92
2023-05-08T17:33:04.744Z,68.93
2023-05-08T17:35:32.783Z,68.46
2023-05-08T17:38:00.917Z,68.47
2023-05-08T17:40:28.973Z,68.57
2023-05-08T17:42:59.086Z,68.34
2023-05-08T17:45:27.336Z,68.52
2023-05-08T17:47:56.818Z,68.77
2023-05-08T17:50:25.051Z,68.72
2023-05-08T17:52:53.163Z,68.73
2023-05-08T17:55:21.207Z,69.04
2023-05-08T17:57:49.203Z,69.18
2023-05-08T18:00:17.866Z,69.43
2023-05-08T18:02:46.031Z,69.50
2023-05-08T18:05:15.749Z,69.54
2023-05-08T18:07:43.827Z,69.61
2023-05-08T18:10:12.566Z,69.53
2023-05-08T18:12:40.790Z,69.55
2023-05-08T18:15:09.702Z,69.80
2023-05-08T18:17:37.770Z,69.77
2023-05-08T18:20:07.906Z,69.86
2023-05-08T18:22:37.592Z,69.96
2023-05-08T18:25:06.371Z,70.26
2023-05-08T18:27:34.541Z,70.58
2023-05-08T18:30:02.567Z,70.86
2023-05-08T18:32:30.568Z,70.91
2023-05-08T18:34:58.667Z,71.38
2023-05-08T18:37:26.703Z,71.36
2023-05-08T18:39:56.143Z,71.69
2023-05-08T18:42:24.183Z,71.79
2023-05-08T18:44:52.344Z,71.65
2023-05-08T18:47:20.400Z,72.13
2023-05-08T18:49:48.939Z,72.44
2023-05-08T18:52:17.145Z,72.65
2023-05-08T18:54:45.306Z,73.03
2023-05-08T18:57:14.766Z,72.82
2023-05-08T18:59:42.764Z,72.94
2023-05-08T19:02:10.821Z,73.36
2023-05-08T19:04:38.825Z,73.75
2023-05-08T19:07:06.887Z,74.06
2023-05-08T19:09:35.016Z,74.08
2023-05-08T19:12:03.094Z,74.37
2023-05-08T19:14:32.479Z,74.95
2023-05-08T19:17:06.257Z,74.75
2023-05-08T19:19:37.108Z,75.26
2023-05-08T19:22:05.275Z,75.46
2023-05-08T19:24:34.233Z,75.99
2023-05-08T19:27:02.362Z,76.73
2023-05-08T19:29:30.382Z,76.92
2023-05-08T19:32:02.928Z,77.69
2023-05-08T19:34:32.293Z,77.39
2023-05-08T19:37:00.429Z,77.61
2023-05-08T19:39:28.510Z,78.21
2023-05-08T19:41:56.571Z,78.54
2023-05-08T19:44:24.650Z,78.64
2023-05-08T19:46:52.691Z,78.97
2023-05-08T19:49:24.401Z,79.07
2023-05-08T19:51:52.508Z,79.41
2023-05-08T19:54:20.816Z,79.63
2023-05-08T19:59:17.294Z,80.44
2023-05-08T20:01:45.365Z,80.74
2023-05-08T20:04:14.659Z,80.75
2023-05-08T20:06:45.509Z,81.55
2023-05-08T20:09:15.690Z,81.69
2023-05-08T20:11:43.675Z,81.71
2023-05-08T20:14:14.385Z,82.18
2023-05-08T20:16:42.886Z,82.25
2023-05-08T20:19:11.053Z,82.45
2023-05-08T20:21:39.442Z,82.55
2023-05-08T20:24:09.268Z,82.73
2023-05-08T20:26:39.192Z,83.35
2023-05-08T20:29:07.192Z,83.79
2023-05-08T20:31:35.449Z,83.81
2023-05-08T20:34:03.546Z,83.92
2023-05-08T20:36:32.047Z,84.13
2023-05-08T20:39:00.045Z,84.26
2023-05-08T20:41:29.585Z,84.74
2023-05-08T20:43:57.584Z,84.82
2023-05-08T20:46:25.801Z,85.06
2023-05-08T20:48:54.201Z,85.64
2023-05-08T20:51:22.281Z,85.72
2023-05-08T20:53:50.303Z,86.21
2023-05-08T20:56:19.226Z,86.43
2023-05-08T20:58:48.786Z,86.69
2023-05-08T21:01:19.166Z,86.92
2023-05-08T21:03:48.632Z,86.97
2023-05-08T21:06:16.667Z,87.59
2023-05-08T21:08:44.682Z,87.75
2023-05-08T21:11:12.977Z,87.99
2023-05-08T21:13:41.047Z,88.93
2023-05-08T21:16:10.504Z,88.65
2023-05-08T21:18:38.746Z,88.22
2023-05-08T21:21:15.957Z,88.89
2023-05-08T21:23:44.154Z,88.38
2023-05-08T21:26:12.207Z,87.77
2023-05-08T21:28:40.860Z,86.93
2023-05-08T21:31:10.369Z,84.13
2023-05-08T21:33:38.467Z,83.30
2023-05-08T21:36:06.908Z,82.82
2023-05-08T21:38:35.359Z,81.48
2023-05-08T21:41:07.381Z,81.12
2023-05-08T21:43:36.378Z,79.28
2023-05-08T21:46:06.070Z,77.35
2023-05-08T21:48:36.085Z,76.48
2023-05-08T21:51:04.504Z,76.26
2023-05-08T21:53:32.593Z,74.23
2023-05-08T21:56:00.739Z,74.26
2023-05-08T21:58:28.864Z,73.42
2023-05-08T22:00:58.542Z,72.04
2023-05-08T22:03:27.093Z,71.70
2023-05-08T22:05:56.531Z,69.70
2023-05-08T22:08:24.552Z,70.17
2023-05-08T22:10:52.567Z,69.79
2023-05-08T22:13:20.677Z,69.11
2023-05-08T22:15:48.888Z,68.81
2023-05-08T22:18:17.228Z,68.70
2023-05-08T22:20:45.423Z,68.16
2023-05-08T22:23:14.782Z,67.04
2023-05-08T22:25:42.943Z,67.93
2023-05-08T22:28:10.977Z,67.46
2023-05-08T22:30:39.082Z,67.78
2023-05-08T22:33:07.084Z,67.47
2023-05-08T22:35:35.398Z,67.16
2023-05-08T22:38:03.561Z,66.82
2023-05-08T22:40:32.995Z,66.65
2023-05-08T22:43:01.100Z,67.22
2023-05-08T22:45:29.342Z,66.51
2023-05-08T22:47:57.406Z,66.62
2023-05-08T22:50:25.411Z,66.54
2023-05-08T22:52:53.483Z,66.80
2023-05-08T22:55:21.552Z,65.92
2023-05-08T22:57:58.531Z,66.26
2023-05-08T23:00:26.618Z,66.31
2023-05-08T23:02:56.988Z,66.43
2023-05-08T23:05:27.431Z,66.02
2023-05-08T23:07:55.458Z,66.31
2023-05-08T23:10:26.111Z,66.74
2023-05-08T23:12:57.494Z,66.44
2023-05-08T23:15:25.784Z,66.82
2023-05-08T23:17:54.062Z,66.75
2023-05-08T23:20:22.043Z,66.91
2023-05-08T23:22:50.099Z,66.82
2023-05-08T23:25:18.141Z,66.98
2023-05-08T23:27:46.133Z,67.15
2023-05-08T23:30:16.969Z,67.14
2023-05-08T23:32:45.601Z,67.27
2023-05-08T23:35:13.867Z,67.91
2023-05-08T23:37:42.106Z,68.01
2023-05-08T23:40:11.106Z,68.26
2023-05-08T23:42:39.900Z,67.93
2023-05-08T23:45:09.191Z,67.58
2023-05-08T23:47:38.629Z,67.42
2023-05-08T23:50:07.930Z,67.87
2023-05-08T23:52:35.949Z,68.19
2023-05-08T23:55:04.451Z,67.99
2023-05-08T23:57:32.401Z,67.56
